sensor_id;sensor_type;location;lat;lon;timestamp;pressure;altitude;pressure_sealevel;temperature;humidity
50464;BME280;62167;38.552;-121.478;2022-08-11T00:00:01;101418.84;;;32.09;21.38
50464;BME280;62167;38.552;-121.478;2022-08-11T00:02:42;101413.06;;;32.00;22.22
50464;BME280;62167;38.552;-121.478;2022-08-11T00:05:14;101409.34;;;32.10;22.89
50464;BME280;62167;38.552;-121.478;2022-08-11T00:07:44;101408.84;;;32.03;23.42
50464;BME280;62167;38.552;-121.478;2022-08-11T00:10:15;101412.22;;;31.66;24.00
50464;BME280;62167;38.552;-121.478;2022-08-11T00:12:42;101408.28;;;31.67;24.69
50464;BME280;62167;38.552;-121.478;2022-08-11T00:15:10;101408.25;;;31.72;24.61
50464;BME280;62167;38.552;-121.478;2022-08-11T00:17:37;101412.75;;;31.68;23.10
50464;BME280;62167;38.552;-121.478;2022-08-11T00:20:07;101413.09;;;31.61;22.64
50464;BME280;62167;38.552;-121.478;2022-08-11T00:22:37;101406.34;;;31.67;22.10
50464;BME280;62167;38.552;-121.478;2022-08-11T00:25:18;101405.25;;;31.68;21.37
50464;BME280;62167;38.552;-121.478;2022-08-11T00:27:47;101411.09;;;31.67;22.53
50464;BME280;62167;38.552;-121.478;2022-08-11T00:30:14;101407.78;;;31.65;23.46
50464;BME280;62167;38.552;-121.478;2022-08-11T00:32:44;101411.38;;;31.65;23.51
50464;BME280;62167;38.552;-121.478;2022-08-11T00:35:14;101405.84;;;31.60;23.12
50464;BME280;62167;38.552;-121.478;2022-08-11T00:37:48;101406.16;;;31.59;23.64
50464;BME280;62167;38.552;-121.478;2022-08-11T00:40:23;101391.97;;;31.55;23.17
50464;BME280;62167;38.552;-121.478;2022-08-11T00:43:09;101393.06;;;31.59;23.05
50464;BME280;62167;38.552;-121.478;2022-08-11T00:51:54;101395.91;;;31.49;24.47
50464;BME280;62167;38.552;-121.478;2022-08-11T00:54:51;101398.44;;;31.45;24.91
50464;BME280;62167;38.552;-121.478;2022-08-11T01:00:23;101394.34;;;31.38;25.28
50464;BME280;62167;38.552;-121.478;2022-08-11T01:17:05;101380.03;;;31.00;26.41
50464;BME280;62167;38.552;-121.478;2022-08-11T01:37:17;101392.53;;;30.28;27.73
50464;BME280;62167;38.552;-121.478;2022-08-11T01:46:29;101398.63;;;30.04;28.98
50464;BME280;62167;38.552;-121.478;2022-08-11T02:00:08;101394.66;;;29.13;30.13
50464;BME280;62167;38.552;-121.478;2022-08-11T02:05:56;101401.00;;;29.09;31.02
50464;BME280;62167;38.552;-121.478;2022-08-11T02:08:48;101406.72;;;28.82;31.21
50464;BME280;62167;38.552;-121.478;2022-08-11T02:11:32;101403.38;;;28.75;31.72
50464;BME280;62167;38.552;-121.478;2022-08-11T02:23:01;101414.16;;;28.24;32.67
50464;BME280;62167;38.552;-121.478;2022-08-11T02:29:20;101410.47;;;27.81;33.78
50464;BME280;62167;38.552;-121.478;2022-08-11T02:32:32;101419.56;;;27.76;34.53
50464;BME280;62167;38.552;-121.478;2022-08-11T02:38:15;101415.19;;;27.53;35.58
50464;BME280;62167;38.552;-121.478;2022-08-11T02:40:56;101428.44;;;27.51;36.04
50464;BME280;62167;38.552;-121.478;2022-08-11T02:43:37;101419.16;;;27.35;36.63
50464;BME280;62167;38.552;-121.478;2022-08-11T02:46:22;101421.81;;;27.25;37.49
50464;BME280;62167;38.552;-121.478;2022-08-11T02:52:29;101433.13;;;26.80;38.80
50464;BME280;62167;38.552;-121.478;2022-08-11T02:58:10;101440.88;;;26.61;39.69
50464;BME280;62167;38.552;-121.478;2022-08-11T03:00:52;101437.66;;;26.47;40.32
50464;BME280;62167;38.552;-121.478;2022-08-11T03:03:30;101438.56;;;26.36;40.52
50464;BME280;62167;38.552;-121.478;2022-08-11T03:11:41;101445.03;;;26.08;41.29
50464;BME280;62167;38.552;-121.478;2022-08-11T03:15:02;101457.06;;;25.85;41.53
50464;BME280;62167;38.552;-121.478;2022-08-11T03:18:11;101456.44;;;25.66;41.76
50464;BME280;62167;38.552;-121.478;2022-08-11T03:21:11;101459.09;;;25.61;41.83
50464;BME280;62167;38.552;-121.478;2022-08-11T03:24:00;101468.19;;;25.45;42.13
50464;BME280;62167;38.552;-121.478;2022-08-11T03:26:52;101467.13;;;25.34;42.55
50464;BME280;62167;38.552;-121.478;2022-08-11T03:34:32;101469.00;;;25.05;42.97
50464;BME280;62167;38.552;-121.478;2022-08-11T03:39:58;101467.94;;;24.94;43.26
50464;BME280;62167;38.552;-121.478;2022-08-11T03:42:53;101471.91;;;24.87;43.26
50464;BME280;62167;38.552;-121.478;2022-08-11T03:48:24;101465.94;;;24.66;43.89
50464;BME280;62167;38.552;-121.478;2022-08-11T03:51:18;101472.53;;;24.65;44.07
50464;BME280;62167;38.552;-121.478;2022-08-11T04:11:01;101481.22;;;24.03;44.67
50464;BME280;62167;38.552;-121.478;2022-08-11T04:16:38;101481.03;;;23.87;44.84
50464;BME280;62167;38.552;-121.478;2022-08-11T04:30:25;101491.56;;;23.29;46.64
50464;BME280;62167;38.552;-121.478;2022-08-11T04:36:29;101506.63;;;23.09;47.22
50464;BME280;62167;38.552;-121.478;2022-08-11T05:01:47;101528.63;;;22.40;49.34
50464;BME280;62167;38.552;-121.478;2022-08-11T05:04:36;101521.06;;;22.36;49.85
50464;BME280;62167;38.552;-121.478;2022-08-11T05:13:05;101530.06;;;22.18;51.11
50464;BME280;62167;38.552;-121.478;2022-08-11T05:16:09;101529.69;;;22.08;51.23
50464;BME280;62167;38.552;-121.478;2022-08-11T05:18:54;101534.16;;;22.02;51.54
50464;BME280;62167;38.552;-121.478;2022-08-11T05:21:42;101532.13;;;21.91;51.12
50464;BME280;62167;38.552;-121.478;2022-08-11T05:27:18;101526.19;;;21.62;51.98
50464;BME280;62167;38.552;-121.478;2022-08-11T05:30:08;101528.09;;;21.62;52.33
50464;BME280;62167;38.552;-121.478;2022-08-11T05:33:09;101531.53;;;21.50;52.02
50464;BME280;62167;38.552;-121.478;2022-08-11T05:36:29;101537.47;;;21.41;52.52
50464;BME280;62167;38.552;-121.478;2022-08-11T05:39:02;101533.66;;;21.42;52.84
50464;BME280;62167;38.552;-121.478;2022-08-11T05:41:49;101525.25;;;21.23;53.42
50464;BME280;62167;38.552;-121.478;2022-08-11T05:44:35;101520.22;;;21.20;53.82
50464;BME280;62167;38.552;-121.478;2022-08-11T05:47:24;101535.84;;;21.20;53.62
50464;BME280;62167;38.552;-121.478;2022-08-11T05:50:11;101524.47;;;21.10;54.24
50464;BME280;62167;38.552;-121.478;2022-08-11T05:52:57;101529.97;;;21.03;54.50
50464;BME280;62167;38.552;-121.478;2022-08-11T05:55:43;101529.13;;;21.03;54.48
50464;BME280;62167;38.552;-121.478;2022-08-11T05:58:37;101527.47;;;20.95;54.63
50464;BME280;62167;38.552;-121.478;2022-08-11T06:01:06;101527.88;;;20.92;54.66
50464;BME280;62167;38.552;-121.478;2022-08-11T06:03:33;101524.31;;;20.91;54.47
50464;BME280;62167;38.552;-121.478;2022-08-11T06:06:27;101524.94;;;20.87;54.91
50464;BME280;62167;38.552;-121.478;2022-08-11T06:08:55;101526.25;;;20.71;55.50
50464;BME280;62167;38.552;-121.478;2022-08-11T06:11:23;101538.47;;;20.68;55.48
50464;BME280;62167;38.552;-121.478;2022-08-11T06:13:50;101536.38;;;20.64;55.61
50464;BME280;62167;38.552;-121.478;2022-08-11T06:16:21;101545.84;;;20.55;55.97
50464;BME280;62167;38.552;-121.478;2022-08-11T06:18:48;101539.53;;;20.47;56.44
50464;BME280;62167;38.552;-121.478;2022-08-11T06:21:15;101535.50;;;20.43;56.28
50464;BME280;62167;38.552;-121.478;2022-08-11T06:23:44;101536.16;;;20.39;56.71
50464;BME280;62167;38.552;-121.478;2022-08-11T06:26:12;101534.88;;;20.35;56.82
50464;BME280;62167;38.552;-121.478;2022-08-11T06:28:41;101533.59;;;20.31;57.09
50464;BME280;62167;38.552;-121.478;2022-08-11T06:31:20;101539.50;;;20.21;57.18
50464;BME280;62167;38.552;-121.478;2022-08-11T06:34:21;101543.06;;;20.15;57.39
50464;BME280;62167;38.552;-121.478;2022-08-11T06:36:56;101547.28;;;20.11;57.46
50464;BME280;62167;38.552;-121.478;2022-08-11T06:42:12;101540.97;;;20.04;58.27
50464;BME280;62167;38.552;-121.478;2022-08-11T06:47:24;101545.13;;;19.86;58.53
50464;BME280;62167;38.552;-121.478;2022-08-11T06:49:55;101542.38;;;19.73;59.00
50464;BME280;62167;38.552;-121.478;2022-08-11T06:52:41;101552.88;;;19.76;58.91
50464;BME280;62167;38.552;-121.478;2022-08-11T06:55:20;101543.19;;;19.74;59.28
50464;BME280;62167;38.552;-121.478;2022-08-11T06:58:15;101536.66;;;19.68;59.21
50464;BME280;62167;38.552;-121.478;2022-08-11T07:01:14;101542.97;;;19.68;59.52
50464;BME280;62167;38.552;-121.478;2022-08-11T07:03:48;101547.78;;;19.60;59.91
50464;BME280;62167;38.552;-121.478;2022-08-11T07:06:44;101542.66;;;19.50;60.40
50464;BME280;62167;38.552;-121.478;2022-08-11T07:10:14;101553.34;;;19.38;60.99
50464;BME280;62167;38.552;-121.478;2022-08-11T07:13:04;101549.13;;;19.36;61.07
50464;BME280;62167;38.552;-121.478;2022-08-11T07:15:52;101555.41;;;19.30;61.36
50464;BME280;62167;38.552;-121.478;2022-08-11T07:18:28;101547.63;;;19.27;61.60
50464;BME280;62167;38.552;-121.478;2022-08-11T07:21:21;101547.19;;;19.30;61.73
50464;BME280;62167;38.552;-121.478;2022-08-11T07:24:17;101554.31;;;19.24;62.01
50464;BME280;62167;38.552;-121.478;2022-08-11T07:27:06;101549.69;;;19.25;61.78
50464;BME280;62167;38.552;-121.478;2022-08-11T07:29:54;101553.03;;;19.20;62.59
50464;BME280;62167;38.552;-121.478;2022-08-11T07:32:32;101552.41;;;19.18;62.55
50464;BME280;62167;38.552;-121.478;2022-08-11T07:35:10;101561.66;;;19.17;62.87
50464;BME280;62167;38.552;-121.478;2022-08-11T07:37:46;101566.22;;;19.10;63.41
50464;BME280;62167;38.552;-121.478;2022-08-11T07:40:20;101559.91;;;19.09;63.76
50464;BME280;62167;38.552;-121.478;2022-08-11T07:42:49;101561.53;;;18.97;64.44
50464;BME280;62167;38.552;-121.478;2022-08-11T07:45:16;101554.78;;;18.93;64.66
50464;BME280;62167;38.552;-121.478;2022-08-11T07:48:01;101563.78;;;18.87;64.57
50464;BME280;62167;38.552;-121.478;2022-08-11T07:50:47;101562.47;;;18.83;65.08
50464;BME280;62167;38.552;-121.478;2022-08-11T07:53:33;101546.09;;;18.83;65.07
50464;BME280;62167;38.552;-121.478;2022-08-11T07:56:03;101553.00;;;18.79;65.34
50464;BME280;62167;38.552;-121.478;2022-08-11T07:58:36;101556.56;;;18.79;65.30
50464;BME280;62167;38.552;-121.478;2022-08-11T08:01:23;101558.66;;;18.77;65.71
50464;BME280;62167;38.552;-121.478;2022-08-11T08:04:11;101559.88;;;18.75;65.61
50464;BME280;62167;38.552;-121.478;2022-08-11T08:06:57;101568.50;;;18.72;65.80
50464;BME280;62167;38.552;-121.478;2022-08-11T08:09:42;101562.38;;;18.70;65.83
50464;BME280;62167;38.552;-121.478;2022-08-11T08:12:28;101564.72;;;18.73;65.64
50464;BME280;62167;38.552;-121.478;2022-08-11T08:15:15;101569.72;;;18.69;66.05
50464;BME280;62167;38.552;-121.478;2022-08-11T08:18:02;101572.16;;;18.64;66.26
50464;BME280;62167;38.552;-121.478;2022-08-11T08:20:41;101578.69;;;18.63;66.20
50464;BME280;62167;38.552;-121.478;2022-08-11T08:23:10;101576.78;;;18.63;66.68
50464;BME280;62167;38.552;-121.478;2022-08-11T08:25:39;101574.25;;;18.62;66.26
50464;BME280;62167;38.552;-121.478;2022-08-11T08:28:11;101580.34;;;18.64;66.26
50464;BME280;62167;38.552;-121.478;2022-08-11T08:30:41;101574.66;;;18.59;66.94
50464;BME280;62167;38.552;-121.478;2022-08-11T08:33:24;101574.66;;;18.59;66.92
50464;BME280;62167;38.552;-121.478;2022-08-11T08:35:54;101569.59;;;18.56;66.99
50464;BME280;62167;38.552;-121.478;2022-08-11T08:38:52;101563.47;;;18.54;66.96
50464;BME280;62167;38.552;-121.478;2022-08-11T08:41:28;101570.38;;;18.50;67.48
50464;BME280;62167;38.552;-121.478;2022-08-11T08:43:57;101579.22;;;18.52;67.40
50464;BME280;62167;38.552;-121.478;2022-08-11T08:46:35;101566.38;;;18.46;67.39
50464;BME280;62167;38.552;-121.478;2022-08-11T08:49:03;101581.44;;;18.41;67.57
50464;BME280;62167;38.552;-121.478;2022-08-11T08:51:35;101574.09;;;18.42;67.31
50464;BME280;62167;38.552;-121.478;2022-08-11T08:54:09;101576.63;;;18.44;67.16
50464;BME280;62167;38.552;-121.478;2022-08-11T08:56:39;101582.06;;;18.44;67.22
50464;BME280;62167;38.552;-121.478;2022-08-11T08:59:09;101576.63;;;18.44;67.23
50464;BME280;62167;38.552;-121.478;2022-08-11T09:02:04;101576.63;;;18.44;67.52
50464;BME280;62167;38.552;-121.478;2022-08-11T09:04:28;101572.16;;;18.36;67.54
50464;BME280;62167;38.552;-121.478;2022-08-11T09:06:58;101574.44;;;18.32;67.58
50464;BME280;62167;38.552;-121.478;2022-08-11T09:09:26;101575.69;;;18.30;67.79
50464;BME280;62167;38.552;-121.478;2022-08-11T09:11:53;101563.63;;;18.24;68.04
50464;BME280;62167;38.552;-121.478;2022-08-11T09:14:24;101573.53;;;18.25;68.12
50464;BME280;62167;38.552;-121.478;2022-08-11T09:17:12;101572.22;;;18.21;67.92
50464;BME280;62167;38.552;-121.478;2022-08-11T09:19:39;101567.16;;;18.18;67.94
50464;BME280;62167;38.552;-121.478;2022-08-11T09:22:06;101558.34;;;18.16;68.86
50464;BME280;62167;38.552;-121.478;2022-08-11T09:24:51;101560.41;;;18.14;68.48
50464;BME280;62167;38.552;-121.478;2022-08-11T09:27:36;101561.19;;;18.08;68.99
50464;BME280;62167;38.552;-121.478;2022-08-11T09:30:06;101560.44;;;17.99;69.08
50464;BME280;62167;38.552;-121.478;2022-08-11T09:32:33;101554.63;;;18.02;68.92
50464;BME280;62167;38.552;-121.478;2022-08-11T09:35:01;101555.66;;;18.01;68.89
50464;BME280;62167;38.552;-121.478;2022-08-11T09:37:30;101561.75;;;18.03;69.15
50464;BME280;62167;38.552;-121.478;2022-08-11T09:40:15;101557.56;;;18.01;69.51
50464;BME280;62167;38.552;-121.478;2022-08-11T09:43:04;101553.53;;;17.97;69.52
50464;BME280;62167;38.552;-121.478;2022-08-11T09:45:51;101552.88;;;17.95;69.72
50464;BME280;62167;38.552;-121.478;2022-08-11T09:48:22;101553.91;;;17.94;69.81
50464;BME280;62167;38.552;-121.478;2022-08-11T09:50:51;101549.50;;;17.93;70.10
50464;BME280;62167;38.552;-121.478;2022-08-11T09:53:19;101546.50;;;17.87;70.18
50464;BME280;62167;38.552;-121.478;2022-08-11T09:55:47;101543.13;;;17.85;69.88
50464;BME280;62167;38.552;-121.478;2022-08-11T09:58:14;101544.81;;;17.86;70.06
50464;BME280;62167;38.552;-121.478;2022-08-11T10:00:47;101546.22;;;17.82;70.26
50464;BME280;62167;38.552;-121.478;2022-08-11T10:03:25;101546.63;;;17.79;70.56
50464;BME280;62167;38.552;-121.478;2022-08-11T10:05:55;101553.69;;;17.74;70.72
50464;BME280;62167;38.552;-121.478;2022-08-11T10:08:42;101551.31;;;17.71;70.80
50464;BME280;62167;38.552;-121.478;2022-08-11T10:11:12;101557.63;;;17.71;70.63
50464;BME280;62167;38.552;-121.478;2022-08-11T10:13:44;101555.09;;;17.70;70.49
50464;BME280;62167;38.552;-121.478;2022-08-11T10:16:34;101558.66;;;17.70;70.53
50464;BME280;62167;38.552;-121.478;2022-08-11T10:19:03;101553.22;;;17.70;70.39
50464;BME280;62167;38.552;-121.478;2022-08-11T10:21:49;101549.16;;;17.66;70.44
50464;BME280;62167;38.552;-121.478;2022-08-11T10:24:34;101554.81;;;17.64;70.49
50464;BME280;62167;38.552;-121.478;2022-08-11T10:27:20;101544.75;;;17.65;70.33
50464;BME280;62167;38.552;-121.478;2022-08-11T10:29:47;101546.38;;;17.59;70.35
50464;BME280;62167;38.552;-121.478;2022-08-11T10:32:33;101553.50;;;17.60;70.53
50464;BME280;62167;38.552;-121.478;2022-08-11T10:35:20;101540.25;;;17.57;70.67
50464;BME280;62167;38.552;-121.478;2022-08-11T10:37:51;101538.50;;;17.50;71.17
50464;BME280;62167;38.552;-121.478;2022-08-11T10:40:21;101539.16;;;17.52;70.86
50464;BME280;62167;38.552;-121.478;2022-08-11T10:42:57;101529.28;;;17.51;71.26
50464;BME280;62167;38.552;-121.478;2022-08-11T10:45:43;101530.13;;;17.51;71.34
50464;BME280;62167;38.552;-121.478;2022-08-11T10:48:29;101531.19;;;17.50;71.35
50464;BME280;62167;38.552;-121.478;2022-08-11T10:50:58;101529.03;;;17.46;71.59
50464;BME280;62167;38.552;-121.478;2022-08-11T10:53:47;101525.25;;;17.47;71.33
50464;BME280;62167;38.552;-121.478;2022-08-11T10:56:37;101518.69;;;17.41;71.54
50464;BME280;62167;38.552;-121.478;2022-08-11T10:59:25;101521.63;;;17.40;71.79
50464;BME280;62167;38.552;-121.478;2022-08-11T11:01:52;101519.63;;;17.33;72.41
50464;BME280;62167;38.552;-121.478;2022-08-11T11:04:32;101527.63;;;17.35;72.18
50464;BME280;62167;38.552;-121.478;2022-08-11T11:07:16;101518.22;;;17.37;72.12
50464;BME280;62167;38.552;-121.478;2022-08-11T11:10:02;101519.25;;;17.36;72.02
50464;BME280;62167;38.552;-121.478;2022-08-11T11:12:37;101518.22;;;17.37;71.94
50464;BME280;62167;38.552;-121.478;2022-08-11T11:15:23;101523.41;;;17.32;72.08
50464;BME280;62167;38.552;-121.478;2022-08-11T11:18:22;101517.03;;;17.25;72.28
50464;BME280;62167;38.552;-121.478;2022-08-11T11:21:17;101516.00;;;17.26;72.12
50464;BME280;62167;38.552;-121.478;2022-08-11T11:26:55;101504.63;;;17.23;72.59
50464;BME280;62167;38.552;-121.478;2022-08-11T11:29:43;101503.16;;;17.20;72.74
50464;BME280;62167;38.552;-121.478;2022-08-11T11:32:26;101512.09;;;17.14;72.73
50464;BME280;62167;38.552;-121.478;2022-08-11T11:35:15;101519.78;;;17.10;72.89
50464;BME280;62167;38.552;-121.478;2022-08-11T11:37:47;101522.03;;;17.07;72.83
50464;BME280;62167;38.552;-121.478;2022-08-11T11:40:16;101520.97;;;17.08;73.19
50464;BME280;62167;38.552;-121.478;2022-08-11T11:42:48;101519.56;;;17.12;72.76
50464;BME280;62167;38.552;-121.478;2022-08-11T11:45:18;101514.69;;;17.07;73.13
50464;BME280;62167;38.552;-121.478;2022-08-11T11:47:47;101514.69;;;17.07;73.29
50464;BME280;62167;38.552;-121.478;2022-08-11T11:50:27;101514.53;;;17.09;73.32
50464;BME280;62167;38.552;-121.478;2022-08-11T11:52:54;101514.53;;;17.09;73.10
50464;BME280;62167;38.552;-121.478;2022-08-11T11:55:23;101514.53;;;17.09;73.30
50464;BME280;62167;38.552;-121.478;2022-08-11T11:57:52;101512.44;;;17.11;73.33
50464;BME280;62167;38.552;-121.478;2022-08-11T12:00:38;101506.81;;;17.12;73.42
50464;BME280;62167;38.552;-121.478;2022-08-11T12:03:23;101504.91;;;17.13;73.54
50464;BME280;62167;38.552;-121.478;2022-08-11T12:05:52;101509.34;;;17.14;73.41
50464;BME280;62167;38.552;-121.478;2022-08-11T12:08:20;101515.81;;;17.13;73.40
50464;BME280;62167;38.552;-121.478;2022-08-11T12:10:52;101515.81;;;17.13;73.60
50464;BME280;62167;38.552;-121.478;2022-08-11T12:13:40;101512.66;;;17.09;73.50
50464;BME280;62167;38.552;-121.478;2022-08-11T12:16:12;101507.84;;;17.11;73.35
50464;BME280;62167;38.552;-121.478;2022-08-11T12:18:41;101510.75;;;17.10;73.46
50464;BME280;62167;38.552;-121.478;2022-08-11T12:21:08;101513.00;;;17.06;73.52
50464;BME280;62167;38.552;-121.478;2022-08-11T12:23:37;101513.22;;;17.05;73.77
50464;BME280;62167;38.552;-121.478;2022-08-11T12:26:23;101509.66;;;17.04;73.78
50464;BME280;62167;38.552;-121.478;2022-08-11T12:29:10;101518.84;;;17.03;73.85
50464;BME280;62167;38.552;-121.478;2022-08-11T12:31:39;101512.53;;;17.03;73.92
50464;BME280;62167;38.552;-121.478;2022-08-11T12:34:09;101513.78;;;17.00;74.01
50464;BME280;62167;38.552;-121.478;2022-08-11T12:37:07;101504.09;;;16.98;74.16
50464;BME280;62167;38.552;-121.478;2022-08-11T12:39:44;101499.53;;;16.98;74.26
50464;BME280;62167;38.552;-121.478;2022-08-11T12:42:32;101509.09;;;16.94;74.11
50464;BME280;62167;38.552;-121.478;2022-08-11T12:45:18;101514.34;;;16.96;74.38
50464;BME280;62167;38.552;-121.478;2022-08-11T12:50:46;101506.38;;;16.94;74.20
50464;BME280;62167;38.552;-121.478;2022-08-11T12:53:35;101505.69;;;16.92;74.46
50464;BME280;62167;38.552;-121.478;2022-08-11T12:56:06;101510.69;;;16.89;74.55
50464;BME280;62167;38.552;-121.478;2022-08-11T12:58:52;101520.91;;;16.86;74.97
50464;BME280;62167;38.552;-121.478;2022-08-11T13:01:19;101511.88;;;16.86;74.82
50464;BME280;62167;38.552;-121.478;2022-08-11T13:04:04;101522.88;;;16.78;75.78
50464;BME280;62167;38.552;-121.478;2022-08-11T13:06:49;101521.00;;;16.78;75.24
50464;BME280;62167;38.552;-121.478;2022-08-11T13:09:17;101516.13;;;16.74;75.79
50464;BME280;62167;38.552;-121.478;2022-08-11T13:11:45;101514.59;;;16.71;75.80
50464;BME280;62167;38.552;-121.478;2022-08-11T13:14:31;101514.75;;;16.70;75.91
50464;BME280;62167;38.552;-121.478;2022-08-11T13:16:59;101512.41;;;16.67;75.88
50464;BME280;62167;38.552;-121.478;2022-08-11T13:19:44;101515.81;;;16.69;75.64
50464;BME280;62167;38.552;-121.478;2022-08-11T13:22:12;101525.16;;;16.66;76.03
50464;BME280;62167;38.552;-121.478;2022-08-11T13:24:41;101519.06;;;16.64;75.68
50464;BME280;62167;38.552;-121.478;2022-08-11T13:27:07;101527.88;;;16.66;76.05
50464;BME280;62167;38.552;-121.478;2022-08-11T13:29:37;101533.72;;;16.63;75.88
50464;BME280;62167;38.552;-121.478;2022-08-11T13:32:06;101542.25;;;16.60;76.22
50464;BME280;62167;38.552;-121.478;2022-08-11T13:34:33;101542.72;;;16.64;76.33
50464;BME280;62167;38.552;-121.478;2022-08-11T13:37:08;101540.44;;;16.67;76.21
50464;BME280;62167;38.552;-121.478;2022-08-11T13:39:36;101543.75;;;16.63;76.89
50464;BME280;62167;38.552;-121.478;2022-08-11T13:42:05;101538.69;;;16.59;76.91
50464;BME280;62167;38.552;-121.478;2022-08-11T13:44:36;101543.94;;;16.61;76.88
50464;BME280;62167;38.552;-121.478;2022-08-11T13:47:05;101541.59;;;16.58;77.50
50464;BME280;62167;38.552;-121.478;2022-08-11T13:49:35;101549.56;;;16.59;77.37
50464;BME280;62167;38.552;-121.478;2022-08-11T13:52:04;101550.41;;;16.60;77.62
50464;BME280;62167;38.552;-121.478;2022-08-11T13:54:34;101556.88;;;16.59;77.84
50464;BME280;62167;38.552;-121.478;2022-08-11T13:57:08;101548.72;;;16.59;77.85
50464;BME280;62167;38.552;-121.478;2022-08-11T13:59:36;101554.81;;;16.61;77.88
50464;BME280;62167;38.552;-121.478;2022-08-11T14:02:06;101561.09;;;16.61;78.21
50464;BME280;62167;38.552;-121.478;2022-08-11T14:05:21;101564.28;;;16.65;77.99
50464;BME280;62167;38.552;-121.478;2022-08-11T14:08:07;101564.09;;;16.67;78.17
50464;BME280;62167;38.552;-121.478;2022-08-11T14:10:36;101565.97;;;16.66;78.13
50464;BME280;62167;38.552;-121.478;2022-08-11T14:13:15;101567.66;;;16.67;78.50
50464;BME280;62167;38.552;-121.478;2022-08-11T14:16:05;101565.63;;;16.69;78.57
50464;BME280;62167;38.552;-121.478;2022-08-11T14:18:34;101570.72;;;16.72;78.50
50464;BME280;62167;38.552;-121.478;2022-08-11T14:21:03;101573.06;;;16.75;78.69
50464;BME280;62167;38.552;-121.478;2022-08-11T14:23:53;101576.84;;;16.74;78.80
50464;BME280;62167;38.552;-121.478;2022-08-11T14:26:24;101581.72;;;16.79;79.07
50464;BME280;62167;38.552;-121.478;2022-08-11T14:29:18;101577.13;;;16.79;78.93
50464;BME280;62167;38.552;-121.478;2022-08-11T14:31:56;101576.72;;;16.82;78.83
50464;BME280;62167;38.552;-121.478;2022-08-11T14:34:25;101580.13;;;16.84;79.01
50464;BME280;62167;38.552;-121.478;2022-08-11T14:37:01;101583.50;;;16.86;78.92
50464;BME280;62167;38.552;-121.478;2022-08-11T14:39:31;101583.13;;;16.90;78.99
50464;BME280;62167;38.552;-121.478;2022-08-11T14:42:04;101588.59;;;16.90;79.12
50464;BME280;62167;38.552;-121.478;2022-08-11T14:44:52;101592.63;;;16.94;79.04
50464;BME280;62167;38.552;-121.478;2022-08-11T14:47:40;101582.66;;;17.01;78.77
50464;BME280;62167;38.552;-121.478;2022-08-11T14:50:18;101582.13;;;17.05;78.72
50464;BME280;62167;38.552;-121.478;2022-08-11T14:52:54;101584.28;;;17.10;78.71
50464;BME280;62167;38.552;-121.478;2022-08-11T14:55:23;101581.16;;;17.13;79.08
50464;BME280;62167;38.552;-121.478;2022-08-11T14:58:15;101591.69;;;17.16;78.81
50464;BME280;62167;38.552;-121.478;2022-08-11T15:00:42;101589.81;;;17.17;78.91
50464;BME280;62167;38.552;-121.478;2022-08-11T15:03:13;101594.50;;;17.23;78.67
50464;BME280;62167;38.552;-121.478;2022-08-11T15:05:42;101597.06;;;17.24;78.67
50464;BME280;62167;38.552;-121.478;2022-08-11T15:08:12;101600.91;;;17.30;78.46
50464;BME280;62167;38.552;-121.478;2022-08-11T15:10:39;101602.03;;;17.35;78.25
50464;BME280;62167;38.552;-121.478;2022-08-11T15:13:06;101605.03;;;17.41;78.24
50464;BME280;62167;38.552;-121.478;2022-08-11T15:15:33;101610.75;;;17.46;78.30
50464;BME280;62167;38.552;-121.478;2022-08-11T15:18:19;101599.94;;;17.52;77.96
50464;BME280;62167;38.552;-121.478;2022-08-11T15:20:49;101607.34;;;17.58;77.79
50464;BME280;62167;38.552;-121.478;2022-08-11T15:23:34;101607.25;;;17.67;77.56
50464;BME280;62167;38.552;-121.478;2022-08-11T15:29:10;101610.44;;;17.85;76.92
50464;BME280;62167;38.552;-121.478;2022-08-11T15:31:56;101615.31;;;17.89;76.56
50464;BME280;62167;38.552;-121.478;2022-08-11T15:34:41;101620.28;;;18.01;76.17
50464;BME280;62167;38.552;-121.478;2022-08-11T15:37:28;101614.50;;;18.10;76.19
50464;BME280;62167;38.552;-121.478;2022-08-11T15:42:57;101618.19;;;18.24;75.33
50464;BME280;62167;38.552;-121.478;2022-08-11T15:45:45;101625.22;;;18.33;74.92
50464;BME280;62167;38.552;-121.478;2022-08-11T15:48:25;101626.78;;;18.42;74.96
50464;BME280;62167;38.552;-121.478;2022-08-11T15:50:56;101632.97;;;18.51;74.87
50464;BME280;62167;38.552;-121.478;2022-08-11T15:53:42;101630.91;;;18.60;73.88
50464;BME280;62167;38.552;-121.478;2022-08-11T15:56:11;101631.47;;;18.70;73.59
50464;BME280;62167;38.552;-121.478;2022-08-11T15:58:44;101633.47;;;18.83;73.22
50464;BME280;62167;38.552;-121.478;2022-08-11T16:01:29;101639.03;;;18.96;72.50
50464;BME280;62167;38.552;-121.478;2022-08-11T16:04:18;101646.09;;;19.12;72.45
50464;BME280;62167;38.552;-121.478;2022-08-11T16:07:24;101646.63;;;19.29;72.32
50464;BME280;62167;38.552;-121.478;2022-08-11T16:09:56;101636.19;;;19.45;71.77
50464;BME280;62167;38.552;-121.478;2022-08-11T16:12:29;101635.81;;;19.55;70.60
50464;BME280;62167;38.552;-121.478;2022-08-11T16:15:02;101632.13;;;19.63;70.56
50464;BME280;62167;38.552;-121.478;2022-08-11T16:17:51;101632.97;;;19.70;69.89
50464;BME280;62167;38.552;-121.478;2022-08-11T16:20:21;101634.06;;;19.76;68.65